Time;durP1;ratioP1;P1;durP2;ratioP2;P2;SDS_P1;SDS_P2;PMS_P1;PMS_P2;Temp;Humidity;BMP_temperature;BMP_pressure;BME280_temperature;BME280_humidity;BME280_pressure;Samples;Min_cycle;Max_cycle;Signal;HPM_P1;HPM_P2
2022/04/19 00:00:56;;;;;;;10.10;7.07;;;179.70;2252.80;;;;;;4847493;29;20046;-80
2022/04/19 00:03:22;;;;;;;13.88;7.40;;;179.60;2252.80;;;;;;4847116;29;20026;-82
2022/04/19 00:05:48;;;;;;;14.73;7.22;;;179.60;2252.80;;;;;;4847261;29;20125;-81
2022/04/19 00:08:16;;;;;;;10.50;6.93;;;179.60;2252.80;;;;;;4846988;29;20064;-80
2022/04/19 00:10:42;;;;;;;10.07;7.05;;;179.60;2252.80;;;;;;4847191;29;20037;-81
2022/04/19 00:13:10;;;;;;;20.23;7.38;;;179.60;2252.80;;;;;;4847269;29;20049;-81
2022/04/19 00:15:38;;;;;;;14.05;7.88;;;179.60;2252.80;;;;;;4847056;29;20032;-80
2022/04/19 00:18:06;;;;;;;9.63;6.63;;;179.80;2252.80;;;;;;4846579;29;20029;-79
2022/04/19 00:20:33;;;;;;;9.80;6.55;;;179.60;2252.80;;;;;;4846998;29;20037;-80
2022/04/19 00:22:59;;;;;;;14.45;7.10;;;179.60;2252.80;;;;;;4846899;29;20057;-82
2022/04/19 00:25:25;;;;;;;9.52;5.70;;;179.60;2252.80;;;;;;4847055;29;20065;-82
2022/04/19 00:27:51;;;;;;;11.35;6.30;;;179.50;2252.80;;;;;;4846937;29;20025;-80
2022/04/19 00:30:17;;;;;;;8.63;5.53;;;179.20;2252.80;;;;;;4863044;29;20035;-81
2022/04/19 00:32:43;;;;;;;11.00;6.20;;;179.50;2252.80;;;;;;4846932;29;20026;-81
2022/04/19 00:35:10;;;;;;;11.48;6.70;;;179.50;2252.80;;;;;;4846900;29;20116;-82
2022/04/19 00:37:38;;;;;;;10.13;7.15;;;179.40;2252.80;;;;;;4863094;29;20029;-81
2022/04/19 00:40:06;;;;;;;9.57;6.22;;;179.50;2252.80;;;;;;4846568;29;20035;-80
2022/04/19 00:42:32;;;;;;;14.15;6.65;;;179.50;2252.80;;;;;;4846684;29;20025;-79
2022/04/19 00:45:02;;;;;;;10.32;6.90;;;204.80;2252.80;;;;;;4846393;29;20034;-82
2022/04/19 00:47:32;;;;;;;10.73;6.47;;;179.50;2252.80;;;;;;4846576;29;20030;-81
2022/04/19 00:50:01;;;;;;;10.50;7.60;;;179.40;2252.80;;;;;;4846563;29;20375;-81
2022/04/19 00:52:28;;;;;;;11.63;8.18;;;179.40;2252.80;;;;;;4846253;29;20029;-81
2022/04/19 00:54:54;;;;;;;14.25;7.90;;;180.00;2252.80;;;;;;4846185;29;20026;-80
2022/04/19 00:57:22;;;;;;;11.38;6.90;;;179.40;2252.80;;;;;;4845705;29;20082;-82
2022/04/19 00:59:49;;;;;;;9.48;6.03;;;179.50;2252.80;;;;;;4846375;29;20029;-81
2022/04/19 01:02:14;;;;;;;8.75;6.28;;;179.40;2252.80;;;;;;4846273;29;20057;-83
2022/04/19 01:04:40;;;;;;;8.40;5.65;;;179.30;2252.80;;;;;;4845748;29;20083;-81
2022/04/19 01:07:07;;;;;;;10.13;5.68;;;179.40;2252.80;;;;;;4846296;29;20472;-83
2022/04/19 01:09:33;;;;;;;10.45;6.03;;;179.40;2252.80;;;;;;4846122;29;20073;-81
2022/04/19 01:14:43;;;;;;;15.57;7.97;;;179.40;2252.80;;;;;;4862796;29;20040;-80
2022/04/19 01:17:10;;;;;;;13.45;6.65;;;179.40;2252.80;;;;;;4846088;29;20111;-80
2022/04/19 01:19:38;;;;;;;13.13;6.00;;;179.30;2252.80;;;;;;4845787;29;20450;-81
2022/04/19 01:22:05;;;;;;;9.63;6.30;;;179.30;2252.80;;;;;;4846003;29;20029;-81
2022/04/19 01:24:32;;;;;;;9.57;6.45;;;179.30;2252.80;;;;;;4845919;29;20105;-79
2022/04/19 01:26:58;;;;;;;11.77;7.15;;;179.30;2252.80;;;;;;4845648;29;20032;-81
2022/04/19 01:29:25;;;;;;;14.73;7.70;;;179.30;2252.80;;;;;;4849527;29;20049;-79
2022/04/19 01:31:52;;;;;;;10.65;6.75;;;179.30;2252.80;;;;;;4885758;29;20026;-80
2022/04/19 01:34:20;;;;;;;9.68;6.35;;;179.30;2252.80;;;;;;4850618;29;20033;-82
2022/04/19 01:36:46;;;;;;;8.85;5.38;;;179.30;2252.80;;;;;;4845617;29;20029;-82
2022/04/19 01:39:12;;;;;;;13.57;7.60;;;179.30;2252.80;;;;;;4845620;29;20077;-80
2022/04/19 01:41:39;;;;;;;42.95;20.17;;;179.30;2252.80;;;;;;4862207;29;20028;-80
2022/04/19 01:44:07;;;;;;;42.95;19.13;;;179.30;2252.80;;;;;;4845418;29;20025;-80
2022/04/19 01:46:33;;;;;;;24.60;12.35;;;179.20;2252.80;;;;;;4845546;29;20427;-80
2022/04/19 01:49:01;;;;;;;32.65;14.18;;;179.30;2252.80;;;;;;4845553;29;20029;-79
2022/04/19 01:51:27;;;;;;;22.17;11.82;;;179.30;2252.80;;;;;;4845591;29;20030;-80
2022/04/19 01:53:55;;;;;;;20.38;12.13;;;179.30;2252.80;;;;;;4845247;29;20030;-78
2022/04/19 01:56:21;;;;;;;27.67;14.15;;;179.30;2252.80;;;;;;4845483;29;20037;-79
2022/04/19 01:58:48;;;;;;;19.83;11.48;;;179.30;2252.80;;;;;;4845419;29;20033;-79
2022/04/19 02:01:14;;;;;;;24.25;15.85;;;179.30;2252.80;;;;;;4845143;29;20037;-79
2022/04/19 02:03:41;;;;;;;19.42;10.63;;;179.20;2252.80;;;;;;4845385;29;20037;-81
2022/04/19 02:06:14;;;;;;;14.60;8.93;;;179.20;2252.80;;;;;;4844977;29;20053;-79
2022/04/19 02:08:40;;;;;;;17.27;11.20;;;154.50;2252.80;;;;;;4845089;29;20027;-79
2022/04/19 02:11:06;;;;;;;26.25;16.92;;;154.40;2252.80;;;;;;4861335;29;20089;-78
2022/04/19 02:13:31;;;;;;;29.23;16.70;;;154.30;2252.80;;;;;;4845234;29;20021;-80
2022/04/19 02:15:58;;;;;;;32.95;18.00;;;154.40;2252.80;;;;;;4844933;29;20029;-82
2022/04/19 02:18:25;;;;;;;30.15;17.15;;;154.30;2252.80;;;;;;4845117;29;20104;-80
2022/04/19 02:20:51;;;;;;;67.50;45.08;;;154.20;2252.80;;;;;;4845024;29;20120;-81
2022/04/19 02:23:17;;;;;;;36.28;28.27;;;154.20;2252.80;;;;;;4844865;29;20435;-81
2022/04/19 02:25:42;;;;;;;35.85;20.92;;;154.10;2252.80;;;;;;4845125;29;20030;-81
2022/04/19 02:28:10;;;;;;;26.35;18.13;;;154.10;2252.80;;;;;;4844790;29;20025;-80
2022/04/19 02:30:36;;;;;;;26.88;16.60;;;154.20;2252.80;;;;;;4845090;29;20082;-80
2022/04/19 02:33:02;;;;;;;27.08;16.60;;;154.10;2252.80;;;;;;4845022;29;20379;-82
2022/04/19 02:35:31;;;;;;;28.80;16.33;;;154.00;2252.80;;;;;;4844775;29;20025;-80
2022/04/19 02:37:58;;;;;;;25.63;14.55;;;154.00;2252.80;;;;;;4844979;29;20032;-81
2022/04/19 02:40:25;;;;;;;24.95;13.50;;;153.90;2252.80;;;;;;4845196;29;20029;-80
2022/04/19 02:42:54;;;;;;;25.50;14.70;;;153.90;2252.80;;;;;;4848805;29;20032;-81
2022/04/19 02:45:21;;;;;;;24.20;14.18;;;153.90;2252.80;;;;;;4849346;29;20073;-80
2022/04/19 02:48:04;;;;;;;26.98;15.20;;;154.00;2252.80;;;;;;4848823;29;20029;-79
2022/04/19 02:50:33;;;;;;;26.67;14.30;;;153.90;2252.80;;;;;;4848566;29;20454;-81
2022/04/19 02:53:03;;;;;;;21.40;12.30;;;153.90;2252.80;;;;;;4848643;29;20037;-79
2022/04/19 02:55:28;;;;;;;16.63;11.68;;;153.70;2252.80;;;;;;4848561;29;20028;-79
2022/04/19 02:57:55;;;;;;;21.42;12.07;;;153.60;2252.80;;;;;;4848333;29;20034;-80
2022/04/19 03:00:21;;;;;;;21.63;14.02;;;153.60;2252.80;;;;;;4848508;29;20200;-80
2022/04/19 03:02:47;;;;;;;20.35;13.23;;;128.90;2252.80;;;;;;4848524;29;20462;-80
2022/04/19 03:05:13;;;;;;;24.10;16.60;;;128.70;2252.80;;;;;;4847947;29;20394;-80
2022/04/19 03:07:39;;;;;;;28.08;17.42;;;128.80;2252.80;;;;;;4848376;29;20362;-80
2022/04/19 03:10:06;;;;;;;25.27;14.77;;;128.80;2252.80;;;;;;4847937;29;20044;-80
2022/04/19 03:12:32;;;;;;;29.60;15.45;;;128.60;2252.80;;;;;;4848286;29;20029;-82
2022/04/19 03:14:57;;;;;;;24.38;15.13;;;128.50;2252.80;;;;;;4848283;29;20047;-80
2022/04/19 03:17:23;;;;;;;21.52;13.05;;;128.50;2252.80;;;;;;4864273;29;20028;-81
2022/04/19 03:19:49;;;;;;;17.83;12.07;;;128.50;2252.80;;;;;;4848131;29;20366;-82
2022/04/19 03:22:15;;;;;;;21.05;11.90;;;128.30;2252.80;;;;;;4848233;29;20064;-81
2022/04/19 03:27:42;;;;;;;15.73;10.65;;;128.20;2252.80;;;;;;4826790;29;20128;-81
2022/04/19 03:30:15;;;;;;;17.70;10.50;;;128.10;2252.80;;;;;;4847899;29;20088;-82
2022/04/19 03:32:44;;;;;;;17.77;11.23;;;128.10;2252.80;;;;;;4847828;29;20025;-82
2022/04/19 03:35:11;;;;;;;22.35;12.55;;;128.10;2252.80;;;;;;4847903;29;20021;-80
2022/04/19 03:37:39;;;;;;;19.98;10.93;;;103.00;2227.20;;;;;;4847688;29;20025;-83
2022/04/19 03:40:06;;;;;;;18.30;11.05;;;103.20;2227.20;;;;;;4847582;29;20029;-78
2022/04/19 03:42:32;;;;;;;25.70;13.57;;;103.20;2227.20;;;;;;4847661;29;20355;-82
2022/04/19 03:44:58;;;;;;;18.15;10.50;;;103.30;2227.20;;;;;;4847607;29;20090;-79
2022/04/19 03:47:23;;;;;;;17.73;10.02;;;103.20;2227.20;;;;;;4847418;29;20037;-81
2022/04/19 03:49:49;;;;;;;20.23;11.00;;;102.90;2227.20;;;;;;4847539;29;20070;-80
2022/04/19 03:52:15;;;;;;;23.45;11.77;;;103.00;2227.20;;;;;;4846469;29;20089;-81
2022/04/19 03:54:40;;;;;;;21.75;11.57;;;103.10;2227.20;;;;;;4847767;29;20049;-83
2022/04/19 03:57:08;;;;;;;21.13;13.30;;;103.00;2227.20;;;;;;4847361;29;20494;-82
2022/04/19 03:59:38;;;;;;;25.23;15.00;;;103.00;2227.20;;;;;;4847286;29;20025;-81
2022/04/19 04:02:04;;;;;;;20.63;12.40;;;103.00;2227.20;;;;;;4864033;29;20073;-83
2022/04/19 04:04:31;;;;;;;21.52;13.38;;;102.90;2227.20;;;;;;4844157;29;20041;-80
2022/04/19 04:07:00;;;;;;;36.33;17.20;;;102.80;2227.20;;;;;;4844322;29;20049;-80
2022/04/19 04:09:32;;;;;;;37.53;17.77;;;102.70;2227.20;;;;;;4844464;29;20033;-82
2022/04/19 04:12:00;;;;;;;28.83;16.02;;;102.60;2227.20;;;;;;4844241;29;20073;-79
2022/04/19 04:14:26;;;;;;;36.63;17.25;;;102.70;2227.20;;;;;;4844032;29;20117;-81
2022/04/19 04:16:52;;;;;;;31.27;15.98;;;102.80;2227.20;;;;;;4844010;29;20060;-78
2022/04/19 04:19:18;;;;;;;25.08;13.18;;;102.80;2227.20;;;;;;4845523;29;20033;-82
2022/04/19 04:21:44;;;;;;;22.52;13.32;;;102.80;2227.20;;;;;;4843773;29;20037;-81
2022/04/19 04:24:09;;;;;;;24.25;13.45;;;102.70;2227.20;;;;;;4845261;29;20026;-79
2022/04/19 04:26:35;;;;;;;23.17;13.90;;;102.70;2227.20;;;;;;4843781;29;20018;-81
2022/04/19 04:29:01;;;;;;;24.70;13.88;;;102.50;2227.20;;;;;;4843735;29;20026;-81
2022/04/19 04:31:27;;;;;;;23.58;14.25;;;102.60;2227.20;;;;;;4843942;29;20120;-80
2022/04/19 04:33:52;;;;;;;160.13;63.55;;;102.60;2227.20;;;;;;4843862;29;20026;-81
2022/04/19 04:36:19;;;;;;;79.22;40.45;;;102.80;2227.20;;;;;;4844835;29;20049;-81
2022/04/19 04:38:45;;;;;;;93.50;58.15;;;102.80;2227.20;;;;;;4843613;29;20383;-82
2022/04/19 04:41:11;;;;;;;78.03;46.33;;;128.30;2252.80;;;;;;4844395;29;20033;-80
2022/04/19 04:43:38;;;;;;;34.28;20.77;;;103.00;2227.20;;;;;;4843608;29;20021;-80
2022/04/19 04:51:32;;;;;;;28.65;21.20;;;102.90;2227.20;;;;;;4844529;29;20041;-81
2022/04/19 04:53:58;;;;;;;32.78;20.83;;;102.80;2227.20;;;;;;4843564;29;20386;-81
2022/04/19 04:56:24;;;;;;;31.92;19.80;;;103.00;2227.20;;;;;;4860311;29;20020;-82
2022/04/19 04:58:50;;;;;;;25.10;15.23;;;103.00;2227.20;;;;;;4857825;29;20030;-80
2022/04/19 05:01:16;;;;;;;25.02;13.90;;;103.00;2227.20;;;;;;4843312;29;20068;-82
2022/04/19 05:03:41;;;;;;;35.08;20.63;;;103.00;2227.20;;;;;;4842882;29;20062;-80
2022/04/19 05:06:07;;;;;;;31.40;20.02;;;102.90;2227.20;;;;;;4843102;29;20042;-78
2022/04/19 05:08:33;;;;;;;33.75;23.42;;;102.90;2227.20;;;;;;4844339;29;20061;-79
2022/04/19 05:10:58;;;;;;;31.50;21.88;;;103.00;2227.20;;;;;;4842923;29;20098;-80
2022/04/19 05:13:25;;;;;;;32.78;21.45;;;103.10;2227.20;;;;;;4843241;29;20486;-82
2022/04/19 05:15:51;;;;;;;40.88;27.00;;;102.90;2227.20;;;;;;4842892;29;20033;-80
2022/04/19 05:18:16;;;;;;;34.35;20.50;;;103.10;2227.20;;;;;;4843932;29;20026;-78
2022/04/19 05:20:42;;;;;;;34.05;19.50;;;103.10;2227.20;;;;;;4842964;29;20034;-81
2022/04/19 05:23:09;;;;;;;34.97;22.25;;;103.30;2227.20;;;;;;4842753;29;20390;-78
2022/04/19 05:25:35;;;;;;;31.92;20.23;;;103.30;2227.20;;;;;;4842846;29;20038;-80
2022/04/19 05:28:00;;;;;;;31.05;17.60;;;128.00;2252.80;;;;;;4842824;29;20026;-78
2022/04/19 05:30:26;;;;;;;33.20;20.13;;;128.10;2252.80;;;;;;4842504;29;20037;-78
2022/04/19 05:32:52;;;;;;;23.23;16.40;;;128.20;2252.80;;;;;;4842652;29;20033;-81
2022/04/19 05:35:18;;;;;;;28.75;14.35;;;128.20;2252.80;;;;;;4842869;29;20089;-80
2022/04/19 05:37:45;;;;;;;29.38;16.80;;;128.20;2252.80;;;;;;4842395;29;20036;-82
2022/04/19 05:40:11;;;;;;;23.02;15.18;;;128.20;2252.80;;;;;;4842803;29;20030;-82
2022/04/19 05:42:37;;;;;;;24.95;16.80;;;128.30;2252.80;;;;;;4842748;29;20447;-80
2022/04/19 05:45:03;;;;;;;61.55;31.58;;;128.40;2252.80;;;;;;4842312;29;20032;-78
2022/04/19 05:47:30;;;;;;;51.38;29.38;;;128.50;2252.80;;;;;;4842494;29;20452;-80
2022/04/19 05:49:56;;;;;;;42.75;23.73;;;128.70;2252.80;;;;;;4842411;29;20032;-80
2022/04/19 05:52:22;;;;;;;34.67;18.33;;;128.90;2252.80;;;;;;4842566;29;20030;-81
2022/04/19 05:54:48;;;;;;;30.17;18.35;;;128.90;2252.80;;;;;;4843015;29;20049;-80
2022/04/19 05:57:13;;;;;;;29.42;16.70;;;128.90;2252.80;;;;;;4844978;29;20022;-79
2022/04/19 05:59:39;;;;;;;27.63;14.77;;;153.70;2252.80;;;;;;4846957;29;20063;-81
2022/04/19 06:04:52;;;;;;;26.13;14.82;;;153.90;2252.80;;;;;;4849639;29;20387;-81
2022/04/19 06:07:19;;;;;;;23.08;14.35;;;154.20;2252.80;;;;;;4861526;29;20490;-79
2022/04/19 06:09:45;;;;;;;22.75;13.63;;;154.40;2252.80;;;;;;4845187;29;20026;-79
2022/04/19 06:12:11;;;;;;;21.02;14.38;;;179.20;2252.80;;;;;;4844647;29;20037;-80
2022/04/19 06:14:37;;;;;;;20.02;14.30;;;179.40;2252.80;;;;;;4845128;29;20116;-79
2022/04/19 06:17:03;;;;;;;21.73;13.15;;;179.30;2252.80;;;;;;4844712;29;20462;-79
2022/04/19 06:19:30;;;;;;;21.30;12.90;;;179.70;2252.80;;;;;;4844843;29;20030;-79
2022/04/19 06:21:56;;;;;;;17.30;10.88;;;179.80;2252.80;;;;;;4844958;29;20390;-79
2022/04/19 06:24:23;;;;;;;16.30;10.13;;;180.00;2252.80;;;;;;4845062;29;20061;-81
2022/04/19 06:26:48;;;;;;;14.63;10.48;;;180.10;2252.80;;;;;;4844723;29;20025;-81
2022/04/19 06:29:15;;;;;;;14.63;10.68;;;180.10;2252.80;;;;;;4845050;29;20040;-80
2022/04/19 06:31:41;;;;;;;12.23;8.73;;;204.80;2252.80;;;;;;4844984;29;20379;-80
2022/04/19 06:34:07;;;;;;;12.00;8.00;;;204.90;2252.80;;;;;;4844655;29;20021;-81
2022/04/19 06:36:34;;;;;;;11.80;8.32;;;204.90;2252.80;;;;;;4844934;29;20029;-81
2022/04/19 06:39:00;;;;;;;11.77;7.78;;;205.10;2252.80;;;;;;4844812;29;20037;-81
2022/04/19 06:41:25;;;;;;;10.55;7.93;;;205.20;2252.80;;;;;;4844595;29;20033;-79
2022/04/19 06:43:52;;;;;;;15.38;9.95;;;205.20;2252.80;;;;;;4845001;29;20033;-79
2022/04/19 06:46:18;;;;;;;10.35;6.80;;;205.30;2252.80;;;;;;4844771;29;20351;-79
2022/04/19 06:48:44;;;;;;;9.85;6.78;;;205.30;2252.80;;;;;;4844410;29;20037;-81
2022/04/19 06:51:10;;;;;;;13.95;10.82;;;205.40;2252.80;;;;;;4844668;29;20042;-80
2022/04/19 06:53:36;;;;;;;11.90;7.35;;;205.50;2252.80;;;;;;4844588;29;20029;-79
2022/04/19 06:56:04;;;;;;;12.50;8.02;;;205.50;2252.80;;;;;;4861067;29;20033;-80
2022/04/19 06:58:30;;;;;;;11.38;7.18;;;205.50;2252.80;;;;;;4844505;29;20029;-81
2022/04/19 07:00:56;;;;;;;10.98;8.15;;;230.70;2252.80;;;;;;4844699;29;20036;-81
2022/04/19 07:03:24;;;;;;;10.65;6.75;;;230.40;2252.80;;;;;;4844392;29;20105;-80
2022/04/19 07:05:50;;;;;;;22.25;12.75;;;230.50;2252.80;;;;;;4861287;29;20045;-80
2022/04/19 07:08:16;;;;;;;16.42;9.68;;;230.60;2252.80;;;;;;4844444;29;20053;-81
2022/04/19 07:10:42;;;;;;;17.88;10.23;;;230.70;2252.80;;;;;;4844480;29;20072;-80
2022/04/19 07:13:10;;;;;;;20.77;11.73;;;230.70;2227.20;;;;;;4844541;29;20029;-79
2022/04/19 07:15:36;;;;;;;28.90;12.68;;;230.80;2252.80;;;;;;4844342;29;20046;-83
2022/04/19 07:18:02;;;;;;;13.18;7.47;;;230.90;2252.80;;;;;;4844664;29;20029;-81
2022/04/19 07:28:40;;;;;;;10.85;6.55;;;231.30;2150.40;;;;;;4863126;29;20527;-79
2022/04/19 07:31:06;;;;;;;11.23;5.82;;;256.10;2150.40;;;;;;4847448;29;20038;-79
2022/04/19 07:33:36;;;;;;;8.38;5.25;;;256.20;2124.80;;;;;;4847589;29;20021;-79
2022/04/19 07:36:03;;;;;;;6.53;4.55;;;256.40;2073.60;;;;;;4847006;29;20021;-80
2022/04/19 07:38:29;;;;;;;10.50;7.40;;;256.30;2073.60;;;;;;4847558;29;20112;-80
2022/04/19 07:40:54;;;;;;;17.52;11.02;;;256.30;2073.60;;;;;;4847579;29;20129;-80
2022/04/19 07:43:20;;;;;;;13.63;8.48;;;256.20;2073.60;;;;;;4864282;29;20034;-79
2022/04/19 07:45:46;;;;;;;10.60;8.23;;;256.10;2099.20;;;;;;4864055;29;20033;-82
2022/04/19 07:48:12;;;;;;;9.18;6.00;;;231.30;2048.00;;;;;;4847471;29;20028;-81
2022/04/19 07:50:39;;;;;;;7.40;4.55;;;256.00;2048.00;;;;;;4846989;29;20462;-81
2022/04/19 07:53:05;;;;;;;8.50;5.78;;;231.20;2048.00;;;;;;4847501;29;20040;-81
2022/04/19 07:55:31;;;;;;;11.05;6.13;;;231.30;2048.00;;;;;;4847130;29;20026;-81
2022/04/19 07:57:57;;;;;;;9.18;6.00;;;256.00;2048.00;;;;;;4847096;29;20081;-80
2022/04/19 08:00:27;;;;;;;15.15;8.05;;;256.10;2099.20;;;;;;4847362;29;20034;-80
2022/04/19 08:02:54;;;;;;;9.38;6.00;;;256.20;2073.60;;;;;;4847424;29;20427;-80
2022/04/19 08:05:20;;;;;;;7.07;4.85;;;256.20;1996.80;;;;;;4846505;29;20048;-79
2022/04/19 08:08:16;;;;;;;12.35;6.72;;;256.20;1971.20;;;;;;4846970;29;20026;-79
2022/04/19 08:10:42;;;;;;;6.72;4.55;;;256.30;1971.20;;;;;;4846153;29;20140;-80
2022/04/19 08:13:09;;;;;;;12.38;7.38;;;256.20;1996.80;;;;;;4846771;29;20138;-80
2022/04/19 08:15:35;;;;;;;20.58;12.57;;;256.30;1971.20;;;;;;4846352;29;20471;-79
2022/04/19 08:18:26;;;;;;;;;;;;;;;;;;;;;
2022/04/19 08:20:52;;;;;;;11.07;5.72;;;256.40;1971.20;;;;;;4863218;29;20497;-76
2022/04/19 08:23:36;;;;;;;22.73;13.18;;;256.30;1920.00;;;;;;4863242;29;20104;-78
2022/04/19 08:26:27;;;;;;;20.42;14.68;;;256.40;1971.20;;;;;;4867942;29;20021;-76
2022/04/19 08:33:23;;;;;;;15.85;10.57;;;256.30;1920.00;;;;;;4823495;29;20053;-78
2022/04/19 08:36:12;;;;;;;23.80;13.48;;;256.30;1894.40;;;;;;4808764;29;20027;-78
2022/04/19 08:39:28;;;;;;;21.08;13.10;;;256.30;1971.20;;;;;;4807945;29;20031;-80
2022/04/19 08:45:47;;;;;;;12.75;8.40;;;256.40;1945.60;;;;;;4862040;29;20121;-80
2022/04/19 09:12:55;;;;;;;8.93;5.97;;;282.40;1792.00;;;;;;4847883;29;20607;-77
2022/04/19 09:15:51;;;;;;;6.80;4.20;;;282.40;1817.60;;;;;;4827443;29;20037;-80
2022/04/19 09:18:34;;;;;;;10.23;6.55;;;307.20;1843.20;;;;;;4826773;29;20080;-78
2022/04/19 09:24:51;;;;;;;10.00;5.60;;;307.50;1792.00;;;;;;4843811;29;20032;-78
2022/04/19 09:27:32;;;;;;;9.63;5.35;;;307.20;1766.40;;;;;;4827513;29;20470;-76
2022/04/19 09:30:22;;;;;;;12.85;7.30;;;282.50;1740.80;;;;;;4826897;29;20026;-76
2022/04/19 09:33:04;;;;;;;16.98;10.45;;;282.20;1715.20;;;;;;4827219;29;20034;-77
2022/04/19 09:35:32;;;;;;;30.35;19.42;;;282.30;1715.20;;;;;;4827075;29;20029;-76
2022/04/19 09:37:58;;;;;;;8.38;5.65;;;282.20;1715.20;;;;;;4827262;29;20029;-76
2022/04/19 09:40:32;;;;;;;9.75;8.32;;;282.20;1689.60;;;;;;4827248;29;20030;-77
2022/04/19 09:43:05;;;;;;;7.20;4.72;;;282.40;1740.80;;;;;;4826929;29;20029;-78
2022/04/19 09:46:04;;;;;;;8.88;4.47;;;307.30;1766.40;;;;;;4843571;29;20029;-77
2022/04/19 09:59:04;;;;;;;11.13;9.15;;;308.10;1587.20;;;;;;4843428;29;20029;-77
2022/04/19 10:12:46;;;;;;;8.88;5.22;;;358.50;1561.60;;;;;;4751376;30;20039;-76
2022/04/19 10:15:18;;;;;;;6.97;4.38;;;359.00;1536.00;;;;;;4841227;29;20030;-77
2022/04/19 10:18:29;;;;;;;;;;;;;;;;;;;;;
2022/04/19 10:21:54;;;;;;;8.40;4.90;;;384.10;1484.80;;;;;;4803704;29;20384;-77
2022/04/19 10:24:42;;;;;;;16.52;8.75;;;384.00;1484.80;;;;;;4802151;29;20042;-76
2022/04/19 10:30:57;;;;;;;6.07;3.60;;;358.80;1484.80;;;;;;4804409;29;20033;-76
2022/04/19 10:34:02;;;;;;;8.80;3.70;;;358.60;1484.80;;;;;;4844327;29;20028;-76
2022/04/19 10:36:45;;;;;;;6.80;2.88;;;358.70;1459.20;;;;;;4859810;29;20078;-77
2022/04/19 10:39:14;;;;;;;11.68;7.80;;;359.10;1433.60;;;;;;4843677;29;20064;-77
2022/04/19 10:42:05;;;;;;;13.70;9.18;;;384.20;1561.60;;;;;;4838609;29;20037;-77
2022/04/19 10:44:36;;;;;;;7.93;4.75;;;384.30;1587.20;;;;;;4839389;29;20028;-77
2022/04/19 10:47:23;;;;;;;8.30;6.27;;;384.00;1561.60;;;;;;4835698;29;20129;-77
2022/04/19 10:49:48;;;;;;;9.38;6.57;;;359.20;1587.20;;;;;;4840317;29;20094;-77
2022/04/19 10:52:36;;;;;;;8.70;5.57;;;359.00;1612.80;;;;;;4828414;29;20430;-77
2022/04/19 10:56:06;;;;;;;9.07;6.35;;;358.80;1612.80;;;;;;4842183;29;20029;-77
2022/04/19 11:04:35;;;;;;;10.38;6.82;;;333.70;1664.00;;;;;;5583686;23;20113;-78
2022/04/19 11:07:41;;;;;;;9.90;7.53;;;333.60;1638.40;;;;;;4865352;29;20043;-81
2022/04/19 11:10:07;;;;;;;12.43;7.75;;;333.70;1638.40;;;;;;4864796;29;20549;-79
2022/04/19 11:13:03;;;;;;;11.77;7.63;;;333.70;1638.40;;;;;;4881242;29;20032;-82
2022/04/19 11:15:41;;;;;;;12.07;8.07;;;359.20;1612.80;;;;;;4860405;29;20043;-80
2022/04/19 11:18:22;;;;;;;9.13;6.70;;;358.80;1638.40;;;;;;4864609;29;20025;-79
2022/04/19 11:20:49;;;;;;;9.80;4.38;;;384.00;1561.60;;;;;;4865820;29;20029;-78
2022/04/19 11:23:26;;;;;;;6.28;3.97;;;384.90;1561.60;;;;;;4847706;29;20110;-77
2022/04/19 11:29:17;;;;;;;8.65;4.75;;;410.50;1510.40;;;;;;4825195;29;20061;-80
2022/04/19 11:31:53;;;;;;;9.95;4.35;;;435.60;1510.40;;;;;;4846068;29;20397;-79
2022/04/19 11:47:24;;;;;;;4.78;3.50;;;409.60;1459.20;;;;;;4868023;29;20039;-80
2022/04/19 11:49:51;;;;;;;6.45;4.07;;;384.90;1484.80;;;;;;4865272;29;20545;-81
2022/04/19 11:52:17;;;;;;;5.45;3.10;;;384.90;1459.20;;;;;;4865658;29;20497;-80
2022/04/19 11:54:43;;;;;;;5.82;3.15;;;384.00;1459.20;;;;;;4865749;29;20029;-79
2022/04/19 11:57:10;;;;;;;9.45;7.53;;;359.30;1510.40;;;;;;4865387;29;20032;-81
2022/04/19 11:59:43;;;;;;;8.48;5.53;;;384.30;1536.00;;;;;;4865342;29;20029;-81
2022/04/19 12:02:28;;;;;;;6.50;3.95;;;384.60;1510.40;;;;;;4865193;29;20465;-79
2022/04/19 12:04:56;;;;;;;5.78;4.00;;;384.50;1510.40;;;;;;4861989;29;20390;-80
2022/04/19 12:07:25;;;;;;;6.05;4.30;;;384.40;1561.60;;;;;;4862423;29;20025;-79
2022/04/19 12:09:51;;;;;;;7.65;4.50;;;384.20;1484.80;;;;;;4862088;29;20033;-80
2022/04/19 12:12:23;;;;;;;16.55;10.38;;;384.20;1561.60;;;;;;4862298;29;20025;-82
2022/04/19 12:14:56;;;;;;;19.65;12.13;;;384.40;1536.00;;;;;;4861654;29;20514;-81
2022/04/19 12:17:31;;;;;;;9.20;6.90;;;384.60;1510.40;;;;;;4862137;29;20030;-80
2022/04/19 12:20:02;;;;;;;7.20;4.85;;;384.50;1510.40;;;;;;4862462;29;20026;-79
2022/04/19 12:22:32;;;;;;;6.30;4.10;;;384.30;1510.40;;;;;;4862767;29;20316;-80
2022/04/19 12:24:58;;;;;;;4.85;3.70;;;384.00;1484.80;;;;;;4865836;29;20430;-76
2022/04/19 12:27:35;;;;;;;5.55;3.63;;;359.20;1484.80;;;;;;4865528;29;20025;-78
2022/04/19 12:30:27;;;;;;;7.72;4.05;;;359.10;1561.60;;;;;;4861607;29;20119;-78
2022/04/19 12:33:09;;;;;;;6.63;4.72;;;359.00;1510.40;;;;;;4862059;29;20029;-81
2022/04/19 12:35:54;;;;;;;9.27;6.47;;;359.10;1510.40;;;;;;4861774;29;20540;-79
2022/04/19 12:38:29;;;;;;;9.55;5.88;;;384.10;1510.40;;;;;;4861557;29;20137;-84
2022/04/19 12:41:45;;;;;;;;;;;;;;;;;;;;;
2022/04/19 12:44:16;;;;;;;5.82;3.28;;;410.00;1433.60;;;;;;4861689;29;20033;-78
2022/04/19 12:46:51;;;;;;;10.05;5.60;;;409.60;1408.00;;;;;;4861801;29;20077;-78
2022/04/19 12:49:22;;;;;;;13.20;8.60;;;410.00;1510.40;;;;;;4853685;29;20370;-81
2022/04/19 12:52:05;;;;;;;17.42;9.02;;;410.20;1484.80;;;;;;4852311;29;20021;-80
2022/04/19 12:54:33;;;;;;;10.10;7.38;;;410.20;1459.20;;;;;;4861246;29;20048;-82
2022/04/19 12:57:15;;;;;;;9.50;6.85;;;410.00;1510.40;;;;;;4867521;29;20474;-77
2022/04/19 12:59:43;;;;;;;15.77;10.45;;;409.80;1484.80;;;;;;4879517;29;20013;-78
2022/04/19 13:02:13;;;;;;;6.22;4.35;;;410.20;1459.20;;;;;;4847640;29;20029;-78
2022/04/19 13:04:39;;;;;;;4.00;2.63;;;410.20;1408.00;;;;;;4854186;29;20499;-80
2022/04/19 13:13:10;;;;;;;8.48;5.13;;;436.10;1459.20;;;;;;4844061;29;20086;-80
2022/04/19 13:15:45;;;;;;;17.90;12.23;;;435.60;1331.20;;;;;;4842625;29;20590;-82
2022/04/19 13:18:11;;;;;;;12.48;6.65;;;460.90;1408.00;;;;;;4842427;29;20065;-79
2022/04/19 13:20:37;;;;;;;14.27;9.18;;;460.80;1408.00;;;;;;4843254;29;20022;-80
2022/04/19 13:23:03;;;;;;;15.80;12.85;;;435.80;1382.40;;;;;;4845159;29;20077;-79
2022/04/19 13:25:29;;;;;;;8.82;5.18;;;435.60;1356.80;;;;;;4853395;29;20438;-80
2022/04/19 13:29:16;;;;;;;;;;;;;;;;;;;;;
2022/04/19 13:45:37;;;;;;;6.70;4.97;;;461.30;1331.20;;;;;;4859919;29;20513;-79
2022/04/19 14:14:53;;;;;;;14.20;10.95;;;461.10;1331.20;;;;;;4786478;30;20495;-81
2022/04/19 14:17:22;;;;;;;11.85;7.70;;;486.60;1331.20;;;;;;4770384;30;20035;-80
2022/04/19 14:20:22;;;;;;;10.55;8.18;;;486.90;1305.60;;;;;;4769404;30;20031;-80
2022/04/19 14:35:11;;;;;;;8.48;6.40;;;486.60;1331.20;;;;;;4818796;29;20055;-82
2022/04/19 14:37:37;;;;;;;9.32;7.70;;;461.40;1254.40;;;;;;4848062;29;20496;-80
2022/04/19 14:40:12;;;;;;;11.68;5.65;;;486.40;1305.60;;;;;;4867156;29;20354;-82
2022/04/19 14:42:38;;;;;;;5.20;3.35;;;486.60;1280.00;;;;;;4867395;29;20030;-80
2022/04/19 14:45:05;;;;;;;6.47;3.63;;;486.60;1254.40;;;;;;4850422;29;20025;-79
2022/04/19 14:47:30;;;;;;;11.35;8.77;;;486.70;1228.80;;;;;;4850874;29;20112;-80
2022/04/19 14:49:56;;;;;;;15.70;10.40;;;461.70;1305.60;;;;;;4850774;29;20174;-81
2022/04/19 14:52:22;;;;;;;16.98;9.35;;;461.30;1305.60;;;;;;4867192;29;20033;-79
2022/04/19 14:58:43;;;;;;;90.95;31.42;;;435.90;1305.60;;;;;;4791498;30;20080;-81
2022/04/19 15:45:55;;;;;;;20.52;12.73;;;384.70;1484.80;;;;;;4827766;29;20041;-82
2022/04/19 15:48:51;;;;;;;27.77;16.15;;;384.50;1459.20;;;;;;4825628;29;20031;-83
2022/04/19 15:51:18;;;;;;;22.35;15.05;;;384.40;1484.80;;;;;;4814906;29;20046;-80
2022/04/19 15:53:44;;;;;;;18.92;11.63;;;384.40;1484.80;;;;;;4809542;29;20018;-82
2022/04/19 15:56:13;;;;;;;21.27;15.57;;;384.30;1484.80;;;;;;4832640;29;20110;-81
2022/04/19 16:04:59;;;;;;;30.13;20.33;;;384.00;1459.20;;;;;;4775163;29;20046;-83
2022/04/19 16:07:31;;;;;;;37.35;23.55;;;359.30;1484.80;;;;;;4842460;29;20086;-84